sensor_id;sensor_type;location;lat;lon;timestamp;P1;durP1;ratioP1;P2;durP2;ratioP2
31728;SDS011;18309;43.658;1.312;2023-03-04T00:00:55;77.57;;;33.72;;
31728;SDS011;18309;43.658;1.312;2023-03-04T00:03:21;74.55;;;32.33;;
31728;SDS011;18309;43.658;1.312;2023-03-04T00:05:47;69.80;;;31.58;;
31728;SDS011;18309;43.658;1.312;2023-03-04T00:08:12;76.82;;;32.92;;
31728;SDS011;18309;43.658;1.312;2023-03-04T00:14:00;71.95;;;31.85;;
31728;SDS011;18309;43.658;1.312;2023-03-04T00:16:25;71.90;;;31.38;;
31728;SDS011;18309;43.658;1.312;2023-03-04T00:18:54;78.00;;;32.72;;
31728;SDS011;18309;43.658;1.312;2023-03-04T00:21:21;67.40;;;31.00;;
31728;SDS011;18309;43.658;1.312;2023-03-04T00:23:48;73.03;;;32.60;;
31728;SDS011;18309;43.658;1.312;2023-03-04T00:26:13;63.88;;;29.08;;
31728;SDS011;18309;43.658;1.312;2023-03-04T00:28:40;71.15;;;31.70;;
31728;SDS011;18309;43.658;1.312;2023-03-04T00:31:06;79.88;;;33.05;;
31728;SDS011;18309;43.658;1.312;2023-03-04T00:33:32;67.70;;;33.17;;
31728;SDS011;18309;43.658;1.312;2023-03-04T00:35:58;72.15;;;32.05;;
31728;SDS011;18309;43.658;1.312;2023-03-04T00:38:24;68.05;;;31.25;;
31728;SDS011;18309;43.658;1.312;2023-03-04T00:40:50;69.43;;;30.75;;
31728;SDS011;18309;43.658;1.312;2023-03-04T00:43:16;68.65;;;32.05;;
31728;SDS011;18309;43.658;1.312;2023-03-04T00:45:42;82.43;;;33.53;;
31728;SDS011;18309;43.658;1.312;2023-03-04T00:48:08;74.35;;;33.53;;
31728;SDS011;18309;43.658;1.312;2023-03-04T00:50:33;73.00;;;32.65;;
31728;SDS011;18309;43.658;1.312;2023-03-04T00:52:59;83.68;;;34.55;;
31728;SDS011;18309;43.658;1.312;2023-03-04T00:55:25;65.82;;;30.90;;
31728;SDS011;18309;43.658;1.312;2023-03-04T00:57:51;66.03;;;31.17;;
31728;SDS011;18309;43.658;1.312;2023-03-04T01:00:17;65.65;;;31.27;;
31728;SDS011;18309;43.658;1.312;2023-03-04T01:02:43;82.85;;;35.03;;
31728;SDS011;18309;43.658;1.312;2023-03-04T01:05:09;81.95;;;34.50;;
31728;SDS011;18309;43.658;1.312;2023-03-04T01:07:35;74.20;;;34.13;;
31728;SDS011;18309;43.658;1.312;2023-03-04T01:10:01;76.07;;;33.65;;
31728;SDS011;18309;43.658;1.312;2023-03-04T01:12:27;73.82;;;31.70;;
31728;SDS011;18309;43.658;1.312;2023-03-04T01:14:53;76.32;;;33.65;;
31728;SDS011;18309;43.658;1.312;2023-03-04T01:17:19;74.57;;;32.88;;
31728;SDS011;18309;43.658;1.312;2023-03-04T01:19:44;73.88;;;31.63;;
31728;SDS011;18309;43.658;1.312;2023-03-04T01:22:10;75.72;;;33.72;;
31728;SDS011;18309;43.658;1.312;2023-03-04T01:24:37;75.85;;;34.15;;
31728;SDS011;18309;43.658;1.312;2023-03-04T01:27:03;65.20;;;31.45;;
31728;SDS011;18309;43.658;1.312;2023-03-04T01:29:29;74.78;;;33.15;;
31728;SDS011;18309;43.658;1.312;2023-03-04T01:31:54;67.18;;;32.35;;
31728;SDS011;18309;43.658;1.312;2023-03-04T01:34:20;72.00;;;32.17;;
31728;SDS011;18309;43.658;1.312;2023-03-04T01:36:45;69.35;;;32.45;;
31728;SDS011;18309;43.658;1.312;2023-03-04T01:39:11;75.22;;;31.25;;
31728;SDS011;18309;43.658;1.312;2023-03-04T01:41:37;74.55;;;30.90;;
31728;SDS011;18309;43.658;1.312;2023-03-04T01:44:03;70.47;;;32.40;;
31728;SDS011;18309;43.658;1.312;2023-03-04T01:46:29;74.43;;;32.60;;
31728;SDS011;18309;43.658;1.312;2023-03-04T01:48:55;61.28;;;30.20;;
31728;SDS011;18309;43.658;1.312;2023-03-04T01:51:21;62.95;;;31.45;;
31728;SDS011;18309;43.658;1.312;2023-03-04T01:53:48;94.53;;;33.20;;
31728;SDS011;18309;43.658;1.312;2023-03-04T01:56:33;71.70;;;30.85;;
31728;SDS011;18309;43.658;1.312;2023-03-04T02:01:43;71.05;;;33.13;;
31728;SDS011;18309;43.658;1.312;2023-03-04T02:04:14;70.78;;;32.55;;
31728;SDS011;18309;43.658;1.312;2023-03-04T02:06:41;70.18;;;31.08;;
31728;SDS011;18309;43.658;1.312;2023-03-04T02:09:08;75.65;;;33.67;;
31728;SDS011;18309;43.658;1.312;2023-03-04T02:11:34;74.30;;;34.15;;
31728;SDS011;18309;43.658;1.312;2023-03-04T02:14:01;74.35;;;33.08;;
31728;SDS011;18309;43.658;1.312;2023-03-04T02:16:27;70.13;;;31.20;;
31728;SDS011;18309;43.658;1.312;2023-03-04T02:18:53;75.80;;;33.50;;
31728;SDS011;18309;43.658;1.312;2023-03-04T02:24:04;72.82;;;32.75;;
31728;SDS011;18309;43.658;1.312;2023-03-04T02:26:44;80.82;;;32.70;;
31728;SDS011;18309;43.658;1.312;2023-03-04T02:29:11;70.18;;;32.03;;
31728;SDS011;18309;43.658;1.312;2023-03-04T02:31:43;73.60;;;30.60;;
31728;SDS011;18309;43.658;1.312;2023-03-04T02:36:39;68.55;;;30.85;;
31728;SDS011;18309;43.658;1.312;2023-03-04T02:39:49;75.90;;;32.15;;
31728;SDS011;18309;43.658;1.312;2023-03-04T02:41:57;71.95;;;33.15;;
31728;SDS011;18309;43.658;1.312;2023-03-04T02:44:24;72.13;;;31.75;;
31728;SDS011;18309;43.658;1.312;2023-03-04T02:46:55;78.50;;;32.25;;
31728;SDS011;18309;43.658;1.312;2023-03-04T02:49:22;73.80;;;31.77;;
31728;SDS011;18309;43.658;1.312;2023-03-04T02:51:57;69.93;;;31.20;;
31728;SDS011;18309;43.658;1.312;2023-03-04T02:54:27;73.07;;;31.42;;
31728;SDS011;18309;43.658;1.312;2023-03-04T02:56:54;70.75;;;30.77;;
31728;SDS011;18309;43.658;1.312;2023-03-04T02:59:21;71.00;;;30.75;;
31728;SDS011;18309;43.658;1.312;2023-03-04T03:01:47;65.38;;;29.73;;
31728;SDS011;18309;43.658;1.312;2023-03-04T03:04:13;69.88;;;30.35;;
31728;SDS011;18309;43.658;1.312;2023-03-04T03:06:40;61.53;;;30.00;;
31728;SDS011;18309;43.658;1.312;2023-03-04T03:09:06;61.13;;;29.35;;
31728;SDS011;18309;43.658;1.312;2023-03-04T03:11:32;68.50;;;29.63;;
31728;SDS011;18309;43.658;1.312;2023-03-04T03:13:58;63.78;;;30.20;;
31728;SDS011;18309;43.658;1.312;2023-03-04T03:16:24;75.93;;;30.90;;
31728;SDS011;18309;43.658;1.312;2023-03-04T03:18:50;67.85;;;30.65;;
31728;SDS011;18309;43.658;1.312;2023-03-04T03:21:15;72.80;;;32.88;;
31728;SDS011;18309;43.658;1.312;2023-03-04T03:23:41;70.97;;;32.03;;
31728;SDS011;18309;43.658;1.312;2023-03-04T03:26:07;74.68;;;32.78;;
31728;SDS011;18309;43.658;1.312;2023-03-04T03:28:33;74.93;;;33.10;;
31728;SDS011;18309;43.658;1.312;2023-03-04T03:30:59;68.32;;;31.83;;
31728;SDS011;18309;43.658;1.312;2023-03-04T03:33:25;73.28;;;32.13;;
31728;SDS011;18309;43.658;1.312;2023-03-04T03:35:51;67.28;;;30.00;;
31728;SDS011;18309;43.658;1.312;2023-03-04T03:38:17;66.03;;;30.98;;
31728;SDS011;18309;43.658;1.312;2023-03-04T03:40:42;62.38;;;29.35;;
31728;SDS011;18309;43.658;1.312;2023-03-04T03:43:08;69.30;;;32.13;;
31728;SDS011;18309;43.658;1.312;2023-03-04T03:45:34;78.40;;;31.73;;
31728;SDS011;18309;43.658;1.312;2023-03-04T03:48:00;71.10;;;32.00;;
31728;SDS011;18309;43.658;1.312;2023-03-04T03:50:25;70.43;;;31.63;;
31728;SDS011;18309;43.658;1.312;2023-03-04T03:52:52;66.85;;;29.48;;
31728;SDS011;18309;43.658;1.312;2023-03-04T03:55:18;66.90;;;29.05;;
31728;SDS011;18309;43.658;1.312;2023-03-04T03:57:44;67.65;;;30.02;;
31728;SDS011;18309;43.658;1.312;2023-03-04T04:00:10;65.20;;;30.33;;
31728;SDS011;18309;43.658;1.312;2023-03-04T04:02:36;77.47;;;31.50;;
31728;SDS011;18309;43.658;1.312;2023-03-04T04:05:02;63.50;;;29.98;;
31728;SDS011;18309;43.658;1.312;2023-03-04T04:07:28;69.47;;;30.13;;
31728;SDS011;18309;43.658;1.312;2023-03-04T04:09:53;69.68;;;30.83;;
31728;SDS011;18309;43.658;1.312;2023-03-04T04:12:19;71.05;;;32.45;;
31728;SDS011;18309;43.658;1.312;2023-03-04T04:14:45;70.65;;;31.35;;
31728;SDS011;18309;43.658;1.312;2023-03-04T04:17:10;69.75;;;31.63;;
31728;SDS011;18309;43.658;1.312;2023-03-04T04:19:38;65.95;;;30.05;;
31728;SDS011;18309;43.658;1.312;2023-03-04T04:22:04;67.43;;;30.60;;
31728;SDS011;18309;43.658;1.312;2023-03-04T04:24:32;69.72;;;31.52;;
31728;SDS011;18309;43.658;1.312;2023-03-04T04:26:57;63.53;;;30.48;;
31728;SDS011;18309;43.658;1.312;2023-03-04T04:29:23;64.18;;;28.98;;
31728;SDS011;18309;43.658;1.312;2023-03-04T04:31:49;68.72;;;29.80;;
31728;SDS011;18309;43.658;1.312;2023-03-04T04:34:15;66.43;;;30.70;;
31728;SDS011;18309;43.658;1.312;2023-03-04T04:36:41;69.18;;;30.55;;
31728;SDS011;18309;43.658;1.312;2023-03-04T04:39:06;69.90;;;31.95;;
31728;SDS011;18309;43.658;1.312;2023-03-04T04:41:36;64.95;;;30.73;;
31728;SDS011;18309;43.658;1.312;2023-03-04T04:44:05;64.20;;;30.13;;
31728;SDS011;18309;43.658;1.312;2023-03-04T04:46:31;67.68;;;29.88;;
31728;SDS011;18309;43.658;1.312;2023-03-04T04:48:57;64.07;;;30.20;;
31728;SDS011;18309;43.658;1.312;2023-03-04T04:51:23;70.45;;;31.45;;
31728;SDS011;18309;43.658;1.312;2023-03-04T04:53:48;61.92;;;28.95;;
31728;SDS011;18309;43.658;1.312;2023-03-04T04:56:18;64.28;;;29.45;;
31728;SDS011;18309;43.658;1.312;2023-03-04T04:58:46;67.85;;;31.17;;
31728;SDS011;18309;43.658;1.312;2023-03-04T05:01:12;63.10;;;29.10;;
31728;SDS011;18309;43.658;1.312;2023-03-04T05:03:38;68.70;;;30.67;;
31728;SDS011;18309;43.658;1.312;2023-03-04T05:06:05;65.70;;;29.90;;
31728;SDS011;18309;43.658;1.312;2023-03-04T05:08:33;63.08;;;29.83;;
31728;SDS011;18309;43.658;1.312;2023-03-04T05:10:59;64.60;;;30.15;;
31728;SDS011;18309;43.658;1.312;2023-03-04T05:13:26;63.17;;;28.75;;
31728;SDS011;18309;43.658;1.312;2023-03-04T05:15:52;66.40;;;30.35;;
31728;SDS011;18309;43.658;1.312;2023-03-04T05:18:20;63.75;;;29.83;;
31728;SDS011;18309;43.658;1.312;2023-03-04T05:20:54;60.03;;;28.50;;
31728;SDS011;18309;43.658;1.312;2023-03-04T05:23:21;59.40;;;28.17;;
31728;SDS011;18309;43.658;1.312;2023-03-04T05:25:47;61.08;;;28.67;;
31728;SDS011;18309;43.658;1.312;2023-03-04T05:28:13;68.70;;;30.13;;
31728;SDS011;18309;43.658;1.312;2023-03-04T05:30:40;63.45;;;29.08;;
31728;SDS011;18309;43.658;1.312;2023-03-04T05:33:07;67.10;;;29.10;;
31728;SDS011;18309;43.658;1.312;2023-03-04T05:35:36;74.32;;;30.83;;
31728;SDS011;18309;43.658;1.312;2023-03-04T05:38:04;69.27;;;29.20;;
31728;SDS011;18309;43.658;1.312;2023-03-04T05:40:31;62.08;;;29.50;;
31728;SDS011;18309;43.658;1.312;2023-03-04T05:42:57;63.45;;;29.15;;
31728;SDS011;18309;43.658;1.312;2023-03-04T05:45:23;70.20;;;29.75;;
31728;SDS011;18309;43.658;1.312;2023-03-04T05:47:50;59.22;;;27.55;;
31728;SDS011;18309;43.658;1.312;2023-03-04T05:50:16;67.88;;;27.90;;
31728;SDS011;18309;43.658;1.312;2023-03-04T05:52:43;61.90;;;28.38;;
31728;SDS011;18309;43.658;1.312;2023-03-04T05:55:08;65.43;;;30.15;;
31728;SDS011;18309;43.658;1.312;2023-03-04T05:57:34;64.60;;;29.02;;
31728;SDS011;18309;43.658;1.312;2023-03-04T06:00:00;76.20;;;28.60;;
31728;SDS011;18309;43.658;1.312;2023-03-04T06:02:29;70.65;;;29.55;;
31728;SDS011;18309;43.658;1.312;2023-03-04T06:04:55;62.85;;;28.58;;
31728;SDS011;18309;43.658;1.312;2023-03-04T06:07:20;63.65;;;29.90;;
31728;SDS011;18309;43.658;1.312;2023-03-04T06:09:46;69.45;;;29.77;;
31728;SDS011;18309;43.658;1.312;2023-03-04T06:12:12;62.33;;;29.08;;
31728;SDS011;18309;43.658;1.312;2023-03-04T06:14:37;65.43;;;30.23;;
31728;SDS011;18309;43.658;1.312;2023-03-04T06:17:03;70.07;;;30.27;;
31728;SDS011;18309;43.658;1.312;2023-03-04T06:19:29;67.72;;;29.35;;
31728;SDS011;18309;43.658;1.312;2023-03-04T06:21:54;67.82;;;31.73;;
31728;SDS011;18309;43.658;1.312;2023-03-04T06:24:20;69.47;;;29.77;;
31728;SDS011;18309;43.658;1.312;2023-03-04T06:26:46;59.53;;;28.55;;
31728;SDS011;18309;43.658;1.312;2023-03-04T06:29:12;68.93;;;29.65;;
31728;SDS011;18309;43.658;1.312;2023-03-04T06:31:38;59.55;;;28.15;;
31728;SDS011;18309;43.658;1.312;2023-03-04T06:34:06;73.15;;;29.60;;
31728;SDS011;18309;43.658;1.312;2023-03-04T06:36:35;70.47;;;31.17;;
31728;SDS011;18309;43.658;1.312;2023-03-04T06:39:04;77.68;;;33.05;;
31728;SDS011;18309;43.658;1.312;2023-03-04T06:41:31;68.45;;;31.10;;
31728;SDS011;18309;43.658;1.312;2023-03-04T06:43:57;67.90;;;29.90;;
31728;SDS011;18309;43.658;1.312;2023-03-04T06:46:22;76.55;;;31.05;;
31728;SDS011;18309;43.658;1.312;2023-03-04T06:48:48;65.95;;;29.52;;
31728;SDS011;18309;43.658;1.312;2023-03-04T06:51:14;76.30;;;34.60;;
31728;SDS011;18309;43.658;1.312;2023-03-04T06:53:40;72.00;;;32.17;;
31728;SDS011;18309;43.658;1.312;2023-03-04T06:59:42;76.15;;;32.85;;
31728;SDS011;18309;43.658;1.312;2023-03-04T07:02:09;85.82;;;32.95;;
31728;SDS011;18309;43.658;1.312;2023-03-04T07:04:36;76.15;;;34.05;;
31728;SDS011;18309;43.658;1.312;2023-03-04T07:07:02;78.75;;;32.45;;
31728;SDS011;18309;43.658;1.312;2023-03-04T07:09:28;79.25;;;35.88;;
31728;SDS011;18309;43.658;1.312;2023-03-04T07:11:54;75.68;;;32.75;;
31728;SDS011;18309;43.658;1.312;2023-03-04T07:14:19;68.85;;;32.28;;
31728;SDS011;18309;43.658;1.312;2023-03-04T07:16:45;75.20;;;33.50;;
31728;SDS011;18309;43.658;1.312;2023-03-04T07:19:10;71.95;;;33.10;;
31728;SDS011;18309;43.658;1.312;2023-03-04T07:21:36;74.72;;;34.13;;
31728;SDS011;18309;43.658;1.312;2023-03-04T07:24:02;69.35;;;31.17;;
31728;SDS011;18309;43.658;1.312;2023-03-04T07:29:49;74.47;;;32.55;;
31728;SDS011;18309;43.658;1.312;2023-03-04T07:32:15;71.57;;;32.95;;
31728;SDS011;18309;43.658;1.312;2023-03-04T07:34:41;74.55;;;34.45;;
31728;SDS011;18309;43.658;1.312;2023-03-04T07:37:06;70.18;;;33.47;;
31728;SDS011;18309;43.658;1.312;2023-03-04T07:39:32;77.13;;;35.47;;
31728;SDS011;18309;43.658;1.312;2023-03-04T07:41:58;73.50;;;33.33;;
31728;SDS011;18309;43.658;1.312;2023-03-04T07:44:23;72.85;;;35.45;;
31728;SDS011;18309;43.658;1.312;2023-03-04T07:46:49;72.15;;;33.40;;
31728;SDS011;18309;43.658;1.312;2023-03-04T07:49:14;67.70;;;32.40;;
31728;SDS011;18309;43.658;1.312;2023-03-04T07:51:40;75.80;;;33.40;;
31728;SDS011;18309;43.658;1.312;2023-03-04T07:54:06;73.05;;;32.10;;
31728;SDS011;18309;43.658;1.312;2023-03-04T07:56:32;78.13;;;35.90;;
31728;SDS011;18309;43.658;1.312;2023-03-04T07:58:59;79.00;;;34.35;;
31728;SDS011;18309;43.658;1.312;2023-03-04T08:01:29;65.25;;;32.22;;
31728;SDS011;18309;43.658;1.312;2023-03-04T08:03:56;73.35;;;35.28;;
31728;SDS011;18309;43.658;1.312;2023-03-04T08:06:23;74.55;;;34.17;;
31728;SDS011;18309;43.658;1.312;2023-03-04T08:08:54;70.38;;;32.38;;
31728;SDS011;18309;43.658;1.312;2023-03-04T08:11:24;72.97;;;32.72;;
31728;SDS011;18309;43.658;1.312;2023-03-04T08:13:50;71.45;;;32.75;;
31728;SDS011;18309;43.658;1.312;2023-03-04T08:16:18;68.57;;;32.45;;
31728;SDS011;18309;43.658;1.312;2023-03-04T08:18:45;74.97;;;33.30;;
31728;SDS011;18309;43.658;1.312;2023-03-04T08:21:13;74.28;;;31.65;;
31728;SDS011;18309;43.658;1.312;2023-03-04T08:23:40;72.10;;;32.25;;
31728;SDS011;18309;43.658;1.312;2023-03-04T08:29:37;66.05;;;30.17;;
31728;SDS011;18309;43.658;1.312;2023-03-04T08:32:03;69.97;;;32.65;;
31728;SDS011;18309;43.658;1.312;2023-03-04T08:34:29;71.38;;;32.80;;
31728;SDS011;18309;43.658;1.312;2023-03-04T08:36:55;74.18;;;30.98;;
31728;SDS011;18309;43.658;1.312;2023-03-04T08:39:21;72.30;;;31.48;;
31728;SDS011;18309;43.658;1.312;2023-03-04T08:41:46;66.53;;;30.73;;
31728;SDS011;18309;43.658;1.312;2023-03-04T08:44:13;70.65;;;31.38;;
31728;SDS011;18309;43.658;1.312;2023-03-04T08:46:40;69.45;;;31.92;;
31728;SDS011;18309;43.658;1.312;2023-03-04T08:49:07;68.72;;;32.03;;
31728;SDS011;18309;43.658;1.312;2023-03-04T08:51:34;69.88;;;30.73;;
31728;SDS011;18309;43.658;1.312;2023-03-04T08:54:01;66.05;;;29.98;;
31728;SDS011;18309;43.658;1.312;2023-03-04T08:56:27;73.35;;;30.25;;
31728;SDS011;18309;43.658;1.312;2023-03-04T08:58:53;62.30;;;29.33;;
31728;SDS011;18309;43.658;1.312;2023-03-04T09:01:19;66.82;;;31.23;;
31728;SDS011;18309;43.658;1.312;2023-03-04T09:03:45;72.55;;;31.58;;
31728;SDS011;18309;43.658;1.312;2023-03-04T09:06:12;77.90;;;32.35;;
31728;SDS011;18309;43.658;1.312;2023-03-04T09:08:39;67.72;;;30.75;;
31728;SDS011;18309;43.658;1.312;2023-03-04T09:11:05;69.30;;;33.00;;
31728;SDS011;18309;43.658;1.312;2023-03-04T09:13:31;65.07;;;31.75;;
31728;SDS011;18309;43.658;1.312;2023-03-04T09:15:57;71.57;;;32.90;;
31728;SDS011;18309;43.658;1.312;2023-03-04T09:18:23;69.88;;;33.08;;
31728;SDS011;18309;43.658;1.312;2023-03-04T09:20:49;70.05;;;31.70;;
31728;SDS011;18309;43.658;1.312;2023-03-04T09:23:15;67.75;;;32.42;;
31728;SDS011;18309;43.658;1.312;2023-03-04T09:25:42;67.65;;;31.98;;
31728;SDS011;18309;43.658;1.312;2023-03-04T09:28:09;71.07;;;31.98;;
31728;SDS011;18309;43.658;1.312;2023-03-04T09:30:35;66.65;;;32.05;;
31728;SDS011;18309;43.658;1.312;2023-03-04T09:33:01;74.35;;;34.13;;
31728;SDS011;18309;43.658;1.312;2023-03-04T09:35:27;74.30;;;33.88;;
31728;SDS011;18309;43.658;1.312;2023-03-04T09:37:56;98.20;;;37.10;;
31728;SDS011;18309;43.658;1.312;2023-03-04T09:40:29;68.07;;;31.67;;
31728;SDS011;18309;43.658;1.312;2023-03-04T09:43:02;69.53;;;31.27;;
31728;SDS011;18309;43.658;1.312;2023-03-04T09:45:34;65.82;;;30.15;;
31728;SDS011;18309;43.658;1.312;2023-03-04T09:48:04;67.28;;;31.48;;
31728;SDS011;18309;43.658;1.312;2023-03-04T09:50:33;66.28;;;31.05;;
31728;SDS011;18309;43.658;1.312;2023-03-04T09:53:24;71.15;;;32.88;;
31728;SDS011;18309;43.658;1.312;2023-03-04T09:55:59;69.97;;;32.45;;
31728;SDS011;18309;43.658;1.312;2023-03-04T10:01:11;67.93;;;32.05;;
31728;SDS011;18309;43.658;1.312;2023-03-04T10:03:48;70.72;;;33.25;;
31728;SDS011;18309;43.658;1.312;2023-03-04T10:06:16;66.73;;;29.70;;
31728;SDS011;18309;43.658;1.312;2023-03-04T10:08:54;72.97;;;32.30;;
31728;SDS011;18309;43.658;1.312;2023-03-04T10:11:37;72.93;;;31.95;;
31728;SDS011;18309;43.658;1.312;2023-03-04T10:14:50;67.22;;;31.90;;
31728;SDS011;18309;43.658;1.312;2023-03-04T10:17:04;69.72;;;30.17;;
31728;SDS011;18309;43.658;1.312;2023-03-04T10:22:35;68.90;;;32.72;;
31728;SDS011;18309;43.658;1.312;2023-03-04T10:27:43;67.30;;;32.28;;
31728;SDS011;18309;43.658;1.312;2023-03-04T10:30:29;72.65;;;32.58;;
31728;SDS011;18309;43.658;1.312;2023-03-04T10:33:13;67.40;;;33.35;;
31728;SDS011;18309;43.658;1.312;2023-03-04T10:35:47;71.45;;;33.00;;
31728;SDS011;18309;43.658;1.312;2023-03-04T10:38:19;77.47;;;35.20;;
31728;SDS011;18309;43.658;1.312;2023-03-04T10:40:46;68.07;;;34.05;;
31728;SDS011;18309;43.658;1.312;2023-03-04T10:43:20;67.30;;;32.70;;
31728;SDS011;18309;43.658;1.312;2023-03-04T10:45:46;70.78;;;33.30;;
31728;SDS011;18309;43.658;1.312;2023-03-04T10:48:23;63.80;;;31.88;;
31728;SDS011;18309;43.658;1.312;2023-03-04T10:59:47;71.00;;;34.55;;
31728;SDS011;18309;43.658;1.312;2023-03-04T11:05:04;72.97;;;35.83;;
31728;SDS011;18309;43.658;1.312;2023-03-04T11:08:14;66.63;;;34.00;;
31728;SDS011;18309;43.658;1.312;2023-03-04T11:13:01;71.25;;;35.72;;
31728;SDS011;18309;43.658;1.312;2023-03-04T11:18:23;76.07;;;37.47;;
31728;SDS011;18309;43.658;1.312;2023-03-04T11:24:24;76.50;;;36.25;;
31728;SDS011;18309;43.658;1.312;2023-03-04T11:26:58;65.75;;;33.30;;
31728;SDS011;18309;43.658;1.312;2023-03-04T11:29:42;70.78;;;34.35;;
31728;SDS011;18309;43.658;1.312;2023-03-04T11:35:12;65.20;;;32.80;;
31728;SDS011;18309;43.658;1.312;2023-03-04T11:38:08;67.72;;;33.50;;
31728;SDS011;18309;43.658;1.312;2023-03-04T11:40:49;72.72;;;35.72;;
31728;SDS011;18309;43.658;1.312;2023-03-04T12:02:58;64.38;;;34.50;;
31728;SDS011;18309;43.658;1.312;2023-03-04T12:06:22;69.07;;;36.22;;
31728;SDS011;18309;43.658;1.312;2023-03-04T12:37:43;63.88;;;31.17;;
31728;SDS011;18309;43.658;1.312;2023-03-04T12:54:47;58.95;;;30.17;;
31728;SDS011;18309;43.658;1.312;2023-03-04T12:57:28;62.78;;;31.85;;
31728;SDS011;18309;43.658;1.312;2023-03-04T13:02:44;58.70;;;29.75;;
31728;SDS011;18309;43.658;1.312;2023-03-04T13:12:13;57.50;;;30.25;;
31728;SDS011;18309;43.658;1.312;2023-03-04T13:15:13;64.63;;;31.67;;
31728;SDS011;18309;43.658;1.312;2023-03-04T13:22:49;60.55;;;31.02;;
31728;SDS011;18309;43.658;1.312;2023-03-04T13:33:45;59.88;;;29.50;;
31728;SDS011;18309;43.658;1.312;2023-03-04T13:43:36;59.20;;;29.88;;
31728;SDS011;18309;43.658;1.312;2023-03-04T13:56:52;59.72;;;30.13;;
31728;SDS011;18309;43.658;1.312;2023-03-04T13:59:44;59.65;;;28.83;;
31728;SDS011;18309;43.658;1.312;2023-03-04T14:02:17;61.75;;;30.15;;
31728;SDS011;18309;43.658;1.312;2023-03-04T14:04:56;59.55;;;30.15;;
31728;SDS011;18309;43.658;1.312;2023-03-04T14:07:25;66.85;;;31.20;;
31728;SDS011;18309;43.658;1.312;2023-03-04T14:12:36;57.25;;;30.10;;
31728;SDS011;18309;43.658;1.312;2023-03-04T14:17:56;61.92;;;30.67;;
31728;SDS011;18309;43.658;1.312;2023-03-04T14:23:01;55.33;;;29.02;;
31728;SDS011;18309;43.658;1.312;2023-03-04T14:25:30;58.85;;;29.30;;
31728;SDS011;18309;43.658;1.312;2023-03-04T14:28:05;55.55;;;28.33;;
31728;SDS011;18309;43.658;1.312;2023-03-04T14:30:42;57.63;;;29.88;;
31728;SDS011;18309;43.658;1.312;2023-03-04T14:33:16;61.42;;;29.83;;
31728;SDS011;18309;43.658;1.312;2023-03-04T14:35:45;56.63;;;29.33;;
31728;SDS011;18309;43.658;1.312;2023-03-04T14:38:17;54.95;;;29.80;;
31728;SDS011;18309;43.658;1.312;2023-03-04T14:40:48;61.60;;;29.30;;
31728;SDS011;18309;43.658;1.312;2023-03-04T14:43:17;60.50;;;30.30;;
31728;SDS011;18309;43.658;1.312;2023-03-04T14:45:51;63.00;;;30.73;;
31728;SDS011;18309;43.658;1.312;2023-03-04T14:48:20;58.58;;;28.33;;
31728;SDS011;18309;43.658;1.312;2023-03-04T14:50:49;59.33;;;30.35;;
31728;SDS011;18309;43.658;1.312;2023-03-04T14:53:19;58.83;;;29.93;;
31728;SDS011;18309;43.658;1.312;2023-03-04T14:56:00;55.60;;;29.20;;
31728;SDS011;18309;43.658;1.312;2023-03-04T14:58:38;54.22;;;30.25;;
31728;SDS011;18309;43.658;1.312;2023-03-04T15:01:26;61.10;;;29.15;;
31728;SDS011;18309;43.658;1.312;2023-03-04T15:03:55;57.75;;;29.98;;
31728;SDS011;18309;43.658;1.312;2023-03-04T15:09:57;55.58;;;29.45;;
31728;SDS011;18309;43.658;1.312;2023-03-04T15:12:28;55.67;;;29.02;;
31728;SDS011;18309;43.658;1.312;2023-03-04T15:14:57;57.30;;;30.58;;
31728;SDS011;18309;43.658;1.312;2023-03-04T15:17:29;53.63;;;27.83;;
31728;SDS011;18309;43.658;1.312;2023-03-04T15:22:31;55.78;;;30.23;;
31728;SDS011;18309;43.658;1.312;2023-03-04T15:24:58;57.55;;;28.90;;
31728;SDS011;18309;43.658;1.312;2023-03-04T15:27:25;54.78;;;29.23;;
31728;SDS011;18309;43.658;1.312;2023-03-04T15:29:52;56.83;;;28.88;;
31728;SDS011;18309;43.658;1.312;2023-03-04T15:32:26;60.00;;;29.35;;
31728;SDS011;18309;43.658;1.312;2023-03-04T15:34:53;58.65;;;29.35;;
31728;SDS011;18309;43.658;1.312;2023-03-04T15:37:20;61.65;;;29.45;;
31728;SDS011;18309;43.658;1.312;2023-03-04T15:39:55;58.83;;;29.27;;
31728;SDS011;18309;43.658;1.312;2023-03-04T15:42:22;60.50;;;28.83;;
31728;SDS011;18309;43.658;1.312;2023-03-04T15:44:48;57.05;;;29.70;;
31728;SDS011;18309;43.658;1.312;2023-03-04T15:47:14;55.53;;;28.45;;
31728;SDS011;18309;43.658;1.312;2023-03-04T15:49:40;52.45;;;29.08;;
31728;SDS011;18309;43.658;1.312;2023-03-04T15:52:12;62.08;;;29.15;;
31728;SDS011;18309;43.658;1.312;2023-03-04T15:54:49;58.53;;;28.90;;
31728;SDS011;18309;43.658;1.312;2023-03-04T15:57:25;54.00;;;28.33;;
31728;SDS011;18309;43.658;1.312;2023-03-04T15:59:51;58.35;;;27.92;;
31728;SDS011;18309;43.658;1.312;2023-03-04T16:02:21;53.58;;;29.55;;
31728;SDS011;18309;43.658;1.312;2023-03-04T16:04:49;54.03;;;28.15;;
31728;SDS011;18309;43.658;1.312;2023-03-04T16:07:16;55.92;;;29.70;;
31728;SDS011;18309;43.658;1.312;2023-03-04T16:09:43;51.67;;;28.88;;
31728;SDS011;18309;43.658;1.312;2023-03-04T16:12:10;54.38;;;28.05;;
31728;SDS011;18309;43.658;1.312;2023-03-04T16:14:36;54.65;;;29.30;;
31728;SDS011;18309;43.658;1.312;2023-03-04T16:17:02;56.35;;;27.77;;
31728;SDS011;18309;43.658;1.312;2023-03-04T16:19:28;55.83;;;29.92;;
31728;SDS011;18309;43.658;1.312;2023-03-04T16:21:54;56.80;;;28.45;;
31728;SDS011;18309;43.658;1.312;2023-03-04T16:24:19;55.95;;;28.70;;
31728;SDS011;18309;43.658;1.312;2023-03-04T16:26:46;55.65;;;28.10;;
31728;SDS011;18309;43.658;1.312;2023-03-04T16:29:12;51.00;;;28.95;;
31728;SDS011;18309;43.658;1.312;2023-03-04T16:31:39;57.00;;;29.13;;
31728;SDS011;18309;43.658;1.312;2023-03-04T16:34:05;49.90;;;27.70;;
31728;SDS011;18309;43.658;1.312;2023-03-04T16:36:31;53.83;;;28.17;;
31728;SDS011;18309;43.658;1.312;2023-03-04T16:38:59;51.20;;;28.63;;
31728;SDS011;18309;43.658;1.312;2023-03-04T16:41:29;61.05;;;28.13;;
31728;SDS011;18309;43.658;1.312;2023-03-04T16:43:57;57.90;;;31.38;;
31728;SDS011;18309;43.658;1.312;2023-03-04T16:46:23;61.90;;;30.80;;
31728;SDS011;18309;43.658;1.312;2023-03-04T16:48:49;61.45;;;30.15;;
31728;SDS011;18309;43.658;1.312;2023-03-04T16:51:16;63.40;;;31.60;;
31728;SDS011;18309;43.658;1.312;2023-03-04T16:53:47;56.35;;;29.73;;
31728;SDS011;18309;43.658;1.312;2023-03-04T16:56:19;61.45;;;31.90;;
31728;SDS011;18309;43.658;1.312;2023-03-04T16:58:46;57.28;;;30.23;;
31728;SDS011;18309;43.658;1.312;2023-03-04T17:01:23;59.30;;;31.42;;
31728;SDS011;18309;43.658;1.312;2023-03-04T17:03:50;62.47;;;29.27;;
31728;SDS011;18309;43.658;1.312;2023-03-04T17:06:17;65.32;;;32.60;;
31728;SDS011;18309;43.658;1.312;2023-03-04T17:08:44;59.92;;;31.30;;
31728;SDS011;18309;43.658;1.312;2023-03-04T17:11:18;68.80;;;32.40;;
31728;SDS011;18309;43.658;1.312;2023-03-04T17:13:46;59.53;;;30.80;;
31728;SDS011;18309;43.658;1.312;2023-03-04T17:16:13;69.22;;;31.42;;
31728;SDS011;18309;43.658;1.312;2023-03-04T17:18:39;65.55;;;30.40;;
31728;SDS011;18309;43.658;1.312;2023-03-04T17:21:07;66.13;;;32.75;;